createdAt,value
2018-10-19T00:02:27.590Z,97312.00
2018-10-19T00:04:57.260Z,97312.00
2018-10-19T00:07:26.899Z,97313.00
2018-10-19T00:09:56.622Z,97313.00
2018-10-19T00:12:26.348Z,97315.00
2018-10-19T00:14:55.937Z,97308.00
2018-10-19T00:17:26.809Z,97311.00
2018-10-19T00:19:56.418Z,97307.00
2018-10-19T00:22:26.138Z,97306.00
2018-10-19T00:24:55.775Z,97307.00
2018-10-19T00:27:25.523Z,97302.00
2018-10-19T00:29:55.167Z,97300.00
2018-10-19T00:32:24.773Z,97302.00
2018-10-19T00:34:54.500Z,97306.00
2018-10-19T00:37:24.089Z,97306.00
2018-10-19T00:39:53.666Z,97308.00
2018-10-19T00:42:23.300Z,97308.00
2018-10-19T00:44:52.958Z,97308.00
2018-10-19T00:47:22.547Z,97300.00
2018-10-19T00:49:52.258Z,97296.00
2018-10-19T00:52:23.020Z,97296.00
2018-10-19T00:55:11.248Z,97302.00
2018-10-19T00:57:40.874Z,97307.00
2018-10-19T01:00:10.571Z,97304.00
2018-10-19T01:02:40.324Z,97309.00
2018-10-19T01:05:10.045Z,97311.00
2018-10-19T01:07:39.700Z,97304.00
2018-10-19T01:10:09.413Z,97308.00
2018-10-19T01:12:39.090Z,97310.00
2018-10-19T01:15:08.755Z,97307.00
2018-10-19T01:17:38.447Z,97301.00
2018-10-19T01:20:08.318Z,97299.00
2018-10-19T01:22:38.307Z,97296.00
2018-10-19T01:25:19.803Z,97294.00
2018-10-19T01:27:49.618Z,97288.00
2018-10-19T01:30:19.279Z,97286.00
2018-10-19T01:32:49.008Z,97280.00
2018-10-19T01:35:18.810Z,97282.00
2018-10-19T01:37:48.507Z,97281.00
2018-10-19T01:43:18.783Z,97279.00
2018-10-19T01:45:53.847Z,97280.00
2018-10-19T01:48:23.545Z,97275.00
2018-10-19T01:50:53.254Z,97279.00
2018-10-19T01:53:22.949Z,97276.00
2018-10-19T01:55:52.594Z,97276.00
2018-10-19T01:58:22.280Z,97274.00
2018-10-19T02:00:52.143Z,97278.00
2018-10-19T02:03:21.815Z,97279.00
2018-10-19T02:05:51.422Z,97271.00
2018-10-19T02:08:21.197Z,97271.00
2018-10-19T02:10:50.919Z,97270.00
2018-10-19T02:13:20.511Z,97275.00
2018-10-19T02:15:50.202Z,97279.00
2018-10-19T02:18:19.853Z,97277.00
2018-10-19T02:20:49.454Z,97268.00
2018-10-19T02:23:19.191Z,97271.00
2018-10-19T02:25:49.796Z,97274.00
2018-10-19T02:28:19.483Z,97276.00
2018-10-19T02:30:49.091Z,97277.00
2018-10-19T02:33:18.840Z,97273.00
2018-10-19T02:35:48.370Z,97269.00
2018-10-19T02:38:17.991Z,97271.00
2018-10-19T02:40:47.595Z,97267.00
2018-10-19T02:43:17.338Z,97277.00
2018-10-19T02:45:46.954Z,97278.00
2018-10-19T02:48:16.607Z,97281.00
2018-10-19T02:50:46.271Z,97277.00
2018-10-19T02:53:15.987Z,97272.00
2018-10-19T02:55:45.518Z,97271.00
2018-10-19T02:58:15.157Z,97278.00
2018-10-19T03:00:44.921Z,97274.00
2018-10-19T03:03:14.536Z,97276.00
2018-10-19T03:05:44.195Z,97274.00
2018-10-19T03:08:13.845Z,97277.00
2018-10-19T03:10:43.415Z,97283.00
2018-10-19T03:13:13.154Z,97280.00
2018-10-19T03:15:42.745Z,97282.00
2018-10-19T03:18:12.414Z,97279.00
2018-10-19T03:20:42.259Z,97280.00
2018-10-19T03:23:12.012Z,97280.00
2018-10-19T03:25:41.518Z,97289.00
2018-10-19T03:28:11.210Z,97290.00
2018-10-19T03:30:40.869Z,97289.00
2018-10-19T03:33:10.562Z,97296.00
2018-10-19T03:35:40.106Z,97297.00
2018-10-19T03:38:09.749Z,97308.00
2018-10-19T03:40:39.423Z,97302.00
2018-10-19T03:43:09.047Z,97306.00
2018-10-19T03:45:38.680Z,97302.00
2018-10-19T03:48:08.378Z,97308.00
2018-10-19T03:50:38.085Z,97316.00
2018-10-19T03:53:07.821Z,97315.00
2018-10-19T03:55:37.360Z,97311.00
2018-10-19T03:58:07.241Z,97312.00
2018-10-19T04:00:37.058Z,97309.00
2018-10-19T04:03:07.152Z,97314.00
2018-10-19T04:05:36.711Z,97311.00
2018-10-19T04:08:06.609Z,97310.00
2018-10-19T04:10:40.699Z,97317.00
2018-10-19T04:13:10.360Z,97315.00
2018-10-19T04:15:39.972Z,97324.00
2018-10-19T04:18:09.664Z,97319.00
2018-10-19T04:20:39.309Z,97320.00
2018-10-19T04:23:34.765Z,97325.00
2018-10-19T04:26:04.352Z,97329.00
2018-10-19T04:28:34.071Z,97334.00
2018-10-19T04:31:03.678Z,97333.00
2018-10-19T04:33:33.342Z,97333.00
2018-10-19T04:36:10.490Z,97334.00
2018-10-19T04:38:40.171Z,97336.00
2018-10-19T04:41:09.800Z,97337.00
2018-10-19T04:43:40.523Z,97332.00
2018-10-19T04:46:10.320Z,97332.00
2018-10-19T04:48:40.019Z,97332.00
2018-10-19T04:51:09.781Z,97336.00
2018-10-19T04:53:39.528Z,97347.00
2018-10-19T04:56:09.312Z,97336.00
2018-10-19T04:58:39.151Z,97344.00
2018-10-19T05:01:09.184Z,97347.00
2018-10-19T05:03:39.189Z,97352.00
2018-10-19T05:09:13.447Z,97354.00
2018-10-19T05:11:43.171Z,97356.00
2018-10-19T05:14:12.815Z,97357.00
2018-10-19T05:16:42.490Z,97356.00
2018-10-19T05:19:12.161Z,97354.00
2018-10-19T05:21:41.835Z,97356.00
2018-10-19T05:24:11.466Z,97356.00
2018-10-19T05:26:41.101Z,97368.00
2018-10-19T05:29:10.903Z,97371.00
2018-10-19T05:31:40.522Z,97370.00
2018-10-19T05:34:10.201Z,97377.00
2018-10-19T05:36:56.128Z,97382.00
2018-10-19T05:39:25.724Z,97382.00
2018-10-19T05:41:55.323Z,97387.00
2018-10-19T05:44:25.206Z,97390.00
2018-10-19T05:46:54.865Z,97389.00
2018-10-19T05:49:24.518Z,97392.00
2018-10-19T05:51:54.234Z,97394.00
2018-10-19T05:54:24.083Z,97399.00
2018-10-19T05:56:53.729Z,97399.00
2018-10-19T05:59:23.605Z,97404.00
2018-10-19T06:01:53.205Z,97406.00
2018-10-19T06:07:23.818Z,97412.00
2018-10-19T06:09:53.501Z,97418.00
2018-10-19T06:12:23.227Z,97417.00
2018-10-19T06:14:52.839Z,97420.00
2018-10-19T06:17:22.563Z,97426.00
2018-10-19T06:19:55.664Z,97435.00
2018-10-19T06:22:25.301Z,97438.00
2018-10-19T06:24:55.022Z,97441.00
2018-10-19T06:27:24.678Z,97438.00
2018-10-19T06:29:54.572Z,97439.00
2018-10-19T06:32:24.246Z,97436.00
2018-10-19T06:34:54.045Z,97448.00
2018-10-19T06:37:23.745Z,97448.00
2018-10-19T06:39:53.444Z,97458.00
2018-10-19T06:42:23.090Z,97458.00
2018-10-19T06:44:52.670Z,97461.00
2018-10-19T06:47:22.549Z,97467.00
2018-10-19T06:49:52.059Z,97470.00
2018-10-19T06:52:21.702Z,97473.00
2018-10-19T06:54:51.366Z,97476.00
2018-10-19T06:57:21.023Z,97472.00
2018-10-19T06:59:50.655Z,97475.00
2018-10-19T07:02:20.278Z,97481.00
2018-10-19T07:04:49.835Z,97481.00
2018-10-19T07:07:19.490Z,97483.00
2018-10-19T07:09:49.227Z,97481.00
2018-10-19T07:12:18.854Z,97493.00
2018-10-19T07:14:48.523Z,97491.00
2018-10-19T07:17:18.182Z,97489.00
2018-10-19T07:19:47.855Z,97491.00
2018-10-19T07:22:17.487Z,97489.00
2018-10-19T07:24:47.441Z,97493.00
2018-10-19T07:27:17.175Z,97490.00
2018-10-19T07:29:46.875Z,97488.00
2018-10-19T07:32:18.107Z,97494.00
2018-10-19T07:34:47.715Z,97495.00
2018-10-19T07:37:17.302Z,97502.00
2018-10-19T07:39:47.031Z,97497.00
2018-10-19T07:42:16.778Z,97503.00
2018-10-19T07:44:46.643Z,97495.00
2018-10-19T07:47:16.632Z,97497.00
2018-10-19T07:49:46.256Z,97497.00
2018-10-19T07:52:15.935Z,97499.00
2018-10-19T07:54:45.793Z,97500.00
2018-10-19T07:57:15.503Z,97508.00
2018-10-19T07:59:45.224Z,97510.00
2018-10-19T08:02:14.960Z,97512.00
2018-10-19T08:04:52.077Z,97513.00
2018-10-19T08:07:21.823Z,97517.00
2018-10-19T08:09:51.570Z,97515.00
2018-10-19T08:12:21.318Z,97515.00
2018-10-19T08:14:51.007Z,97522.00
2018-10-19T08:17:20.683Z,97520.00
2018-10-19T08:19:50.329Z,97519.00
2018-10-19T08:22:19.975Z,97519.00
2018-10-19T08:24:51.258Z,97523.00
2018-10-19T08:27:21.077Z,97523.00
2018-10-19T08:29:50.814Z,97519.00
2018-10-19T08:32:20.475Z,97518.00
2018-10-19T08:34:50.160Z,97520.00
2018-10-19T08:37:19.857Z,97514.00
2018-10-19T08:39:49.499Z,97524.00
2018-10-19T08:42:19.286Z,97529.00
2018-10-19T08:44:49.067Z,97533.00
2018-10-19T08:47:18.790Z,97533.00
2018-10-19T08:49:48.554Z,97527.00
2018-10-19T08:52:18.170Z,97522.00
2018-10-19T08:54:47.869Z,97529.00
2018-10-19T08:57:17.519Z,97524.00
2018-10-19T08:59:47.150Z,97527.00
2018-10-19T09:02:16.898Z,97526.00
2018-10-19T09:04:58.303Z,97524.00
2018-10-19T09:07:27.986Z,97528.00
2018-10-19T09:09:57.563Z,97522.00
2018-10-19T09:12:27.217Z,97527.00
2018-10-19T09:14:59.085Z,97522.00
2018-10-19T09:17:28.727Z,97528.00
2018-10-19T09:19:58.379Z,97524.00
2018-10-19T09:22:28.062Z,97526.00
2018-10-19T09:24:57.762Z,97522.00
2018-10-19T09:27:27.414Z,97531.00
2018-10-19T09:29:57.071Z,97532.00
2018-10-19T09:32:26.714Z,97527.00
2018-10-19T09:34:56.365Z,97536.00
2018-10-19T09:37:25.987Z,97531.00
2018-10-19T09:39:55.703Z,97520.00
2018-10-19T09:42:25.367Z,97520.00
2018-10-19T09:44:55.084Z,97517.00
2018-10-19T09:47:24.851Z,97517.00
2018-10-19T09:49:54.505Z,97515.00
2018-10-19T09:52:24.707Z,97519.00
2018-10-19T09:54:54.402Z,97514.00
2018-10-19T09:57:29.613Z,97518.00
2018-10-19T10:00:00.243Z,97521.00
2018-10-19T10:02:29.876Z,97521.00
2018-10-19T10:04:59.572Z,97519.00
2018-10-19T10:07:29.255Z,97517.00
2018-10-19T10:09:58.995Z,97513.00
2018-10-19T10:12:28.913Z,97511.00
2018-10-19T10:14:59.952Z,97506.00
2018-10-19T10:17:29.576Z,97506.00
2018-10-19T10:19:59.415Z,97506.00
2018-10-19T10:22:29.413Z,97502.00
2018-10-19T10:24:59.206Z,97503.00
2018-10-19T10:27:28.821Z,97500.00
2018-10-19T10:29:59.989Z,97495.00
2018-10-19T10:32:54.492Z,97498.00
2018-10-19T10:35:24.164Z,97487.00
2018-10-19T10:37:54.110Z,97491.00
2018-10-19T10:40:23.775Z,97495.00
2018-10-19T10:42:55.672Z,97497.00
2018-10-19T10:45:25.361Z,97494.00
2018-10-19T10:47:55.037Z,97486.00
2018-10-19T10:50:24.792Z,97490.00
2018-10-19T10:52:54.829Z,97488.00
2018-10-19T10:55:24.511Z,97479.00
2018-10-19T10:57:54.178Z,97478.00
2018-10-19T11:00:24.436Z,97479.00
2018-10-19T11:02:54.687Z,97469.00
2018-10-19T11:05:24.379Z,97469.00
2018-10-19T11:07:53.992Z,97459.00
2018-10-19T11:10:46.441Z,97467.00
2018-10-19T11:13:16.157Z,97466.00
2018-10-19T11:15:45.802Z,97464.00
2018-10-19T11:18:15.710Z,97459.00
2018-10-19T11:20:45.631Z,97455.00
2018-10-19T11:23:37.489Z,97457.00
2018-10-19T11:26:07.316Z,97453.00
2018-10-19T11:28:36.934Z,97453.00
2018-10-19T11:31:07.018Z,97452.00
2018-10-19T11:33:40.204Z,97450.00
2018-10-19T11:36:10.093Z,97452.00
2018-10-19T11:38:39.718Z,97447.00
2018-10-19T11:41:10.050Z,97451.00
2018-10-19T11:43:51.137Z,97447.00
2018-10-19T11:46:21.788Z,97441.00
2018-10-19T11:49:06.127Z,97440.00
2018-10-19T11:51:35.772Z,97433.00
2018-10-19T11:54:05.757Z,97440.00
2018-10-19T11:56:35.475Z,97434.00
2018-10-19T11:59:05.685Z,97435.00
2018-10-19T12:01:35.342Z,97435.00
2018-10-19T12:04:06.230Z,97437.00
2018-10-19T12:06:35.807Z,97437.00
2018-10-19T12:09:08.094Z,97437.00
2018-10-19T12:14:59.484Z,97421.00
2018-10-19T12:17:29.203Z,97418.00
2018-10-19T12:20:22.593Z,97421.00
2018-10-19T12:22:52.304Z,97420.00
2018-10-19T12:25:22.029Z,97421.00
2018-10-19T12:27:51.661Z,97415.00
2018-10-19T12:30:21.468Z,97420.00
2018-10-19T12:32:51.226Z,97414.00
2018-10-19T12:35:21.088Z,97414.00
2018-10-19T12:37:50.685Z,97417.00
2018-10-19T12:40:20.444Z,97406.00
2018-10-19T12:42:50.166Z,97405.00
2018-10-19T12:46:39.363Z,97405.00
2018-10-19T12:49:09.686Z,97405.00
2018-10-19T12:51:39.532Z,97405.00
2018-10-19T12:54:14.663Z,97406.00
2018-10-19T12:56:44.314Z,97404.00
2018-10-19T12:59:13.986Z,97402.00
2018-10-19T13:01:43.666Z,97401.00
2018-10-19T13:04:13.375Z,97398.00
2018-10-19T13:06:43.030Z,97397.00
2018-10-19T13:09:13.979Z,97391.00
2018-10-19T13:11:43.579Z,97395.00
2018-10-19T13:14:13.320Z,97392.00
2018-10-19T13:16:42.984Z,97395.00
2018-10-19T13:19:12.646Z,97390.00
2018-10-19T13:21:42.240Z,97387.00
2018-10-19T13:24:12.948Z,97383.00
2018-10-19T13:26:42.391Z,97389.00
2018-10-19T13:29:11.986Z,97389.00
2018-10-19T13:31:41.727Z,97389.00
2018-10-19T13:34:17.468Z,97382.00
2018-10-19T13:36:47.162Z,97387.00
2018-10-19T13:39:16.887Z,97386.00
2018-10-19T13:41:46.479Z,97385.00
2018-10-19T13:44:25.998Z,97381.00
2018-10-19T13:46:55.562Z,97386.00
2018-10-19T13:49:25.148Z,97387.00
2018-10-19T13:51:54.759Z,97385.00
2018-10-19T13:54:24.337Z,97381.00
2018-10-19T13:56:53.860Z,97388.00
2018-10-19T13:59:23.430Z,97388.00
2018-10-19T14:02:00.289Z,97392.00
2018-10-19T14:04:30.071Z,97390.00
2018-10-19T14:06:59.791Z,97388.00
2018-10-19T14:09:29.583Z,97384.00
2018-10-19T14:12:04.369Z,97380.00
2018-10-19T14:14:34.022Z,97383.00
2018-10-19T14:17:05.223Z,97381.00
2018-10-19T14:19:35.167Z,97381.00
2018-10-19T14:22:04.987Z,97386.00
2018-10-19T14:24:34.794Z,97385.00
2018-10-19T14:27:05.622Z,97388.00
2018-10-19T14:29:35.269Z,97391.00
2018-10-19T14:32:05.267Z,97387.00
2018-10-19T14:34:34.997Z,97390.00
2018-10-19T14:37:05.194Z,97395.00
2018-10-19T14:39:47.342Z,97395.00
2018-10-19T14:42:43.726Z,97388.00
2018-10-19T14:45:15.235Z,97391.00
2018-10-19T14:47:55.581Z,97393.00
2018-10-19T14:50:26.340Z,97394.00
2018-10-19T14:52:56.312Z,97400.00
2018-10-19T14:55:25.926Z,97398.00
2018-10-19T14:57:55.709Z,97393.00
2018-10-19T15:00:25.641Z,97392.00
2018-10-19T15:02:55.532Z,97395.00
2018-10-19T15:05:26.323Z,97394.00
2018-10-19T15:07:56.131Z,97398.00
2018-10-19T15:10:26.006Z,97398.00
2018-10-19T15:12:55.760Z,97396.00
2018-10-19T15:15:25.467Z,97396.00
2018-10-19T15:17:59.942Z,97395.00
2018-10-19T15:20:33.749Z,97386.00
2018-10-19T15:23:14.804Z,97397.00
2018-10-19T15:25:50.623Z,97400.00
2018-10-19T15:31:25.414Z,97407.00
2018-10-19T15:33:55.074Z,97409.00
2018-10-19T15:36:26.619Z,97404.00
2018-10-19T15:38:58.903Z,97405.00
2018-10-19T15:41:59.596Z,97400.00
2018-10-19T15:44:34.187Z,97405.00
2018-10-19T15:50:04.038Z,97400.00
2018-10-19T15:52:33.688Z,97402.00
2018-10-19T15:55:10.448Z,97407.00
2018-10-19T15:57:40.534Z,97407.00
2018-10-19T16:00:11.541Z,97410.00
2018-10-19T16:02:45.288Z,97411.00
2018-10-19T16:05:14.978Z,97422.00
2018-10-19T16:11:10.369Z,97429.00
2018-10-19T16:13:39.749Z,97435.00
2018-10-19T16:16:09.366Z,97446.00
2018-10-19T16:18:45.825Z,97457.00
2018-10-19T16:21:17.339Z,97468.00
2018-10-19T16:23:46.693Z,97463.00
2018-10-19T16:26:16.137Z,97468.00
2018-10-19T16:28:45.474Z,97471.00
2018-10-19T16:31:14.818Z,97478.00
2018-10-19T16:33:54.628Z,97481.00
2018-10-19T16:36:24.011Z,97489.00
2018-10-19T16:39:07.609Z,97500.00
2018-10-19T16:42:01.725Z,97498.00
2018-10-19T16:44:31.017Z,97503.00
2018-10-19T16:47:00.537Z,97509.00
2018-10-19T16:49:37.426Z,97509.00
2018-10-19T16:52:07.130Z,97516.00
2018-10-19T16:54:36.361Z,97517.00
2018-10-19T16:57:20.349Z,97529.00
2018-10-19T16:59:49.670Z,97524.00
2018-10-19T17:02:18.991Z,97526.00
2018-10-19T17:04:48.396Z,97528.00
2018-10-19T17:07:17.678Z,97532.00
2018-10-19T17:09:46.999Z,97532.00
2018-10-19T17:12:23.352Z,97532.00
2018-10-19T17:14:52.736Z,97531.00
2018-10-19T17:17:23.570Z,97542.00
2018-10-19T17:19:52.912Z,97545.00
2018-10-19T17:22:22.251Z,97553.00
2018-10-19T17:24:51.581Z,97557.00
2018-10-19T17:27:20.937Z,97555.00
2018-10-19T17:29:50.253Z,97555.00
2018-10-19T17:32:19.561Z,97563.00
2018-10-19T17:35:15.892Z,97567.00
2018-10-19T17:37:51.666Z,97567.00
2018-10-19T17:40:21.006Z,97566.00
2018-10-19T17:45:59.047Z,97570.00
2018-10-19T17:48:45.234Z,97569.00
2018-10-19T17:51:14.607Z,97571.00
2018-10-19T17:53:43.905Z,97572.00
2018-10-19T17:56:13.221Z,97572.00
2018-10-19T17:58:42.574Z,97574.00
2018-10-19T18:01:17.534Z,97575.00
2018-10-19T18:03:46.870Z,97579.00
2018-10-19T18:06:16.309Z,97581.00
2018-10-19T18:08:45.575Z,97581.00
2018-10-19T18:11:15.094Z,97576.00
2018-10-19T18:13:44.378Z,97578.00
2018-10-19T18:16:13.776Z,97583.00
2018-10-19T18:18:43.059Z,97582.00
2018-10-19T18:21:18.311Z,97587.00
2018-10-19T18:23:47.686Z,97591.00
2018-10-19T18:26:37.783Z,97595.00
2018-10-19T18:29:07.337Z,97599.00
2018-10-19T18:31:36.714Z,97599.00
2018-10-19T18:34:06.055Z,97597.00
2018-10-19T18:36:35.378Z,97603.00
2018-10-19T18:39:06.581Z,97613.00
2018-10-19T18:41:46.362Z,97619.00
2018-10-19T18:44:15.749Z,97618.00
2018-10-19T18:46:45.025Z,97627.00
2018-10-19T18:49:14.369Z,97629.00
2018-10-19T18:51:43.694Z,97631.00
2018-10-19T18:54:13.027Z,97630.00
2018-10-19T18:56:42.366Z,97633.00
2018-10-19T18:59:11.808Z,97636.00
2018-10-19T19:01:41.086Z,97644.00
2018-10-19T19:04:10.430Z,97640.00
2018-10-19T19:06:39.763Z,97637.00
2018-10-19T19:09:12.953Z,97648.00
2018-10-19T19:11:42.422Z,97646.00
2018-10-19T19:14:12.527Z,97647.00
2018-10-19T19:16:41.861Z,97642.00
2018-10-19T19:19:11.158Z,97639.00
2018-10-19T19:21:40.606Z,97652.00
2018-10-19T19:24:15.214Z,97659.00
2018-10-19T19:26:44.522Z,97659.00
2018-10-19T19:29:13.904Z,97662.00
2018-10-19T19:31:43.202Z,97664.00
2018-10-19T19:34:17.691Z,97666.00
2018-10-19T19:36:47.161Z,97669.00
2018-10-19T19:39:16.485Z,97672.00
2018-10-19T19:41:51.186Z,97672.00
2018-10-19T19:44:20.501Z,97666.00
2018-10-19T19:46:49.810Z,97669.00
2018-10-19T19:49:24.522Z,97675.00
2018-10-19T19:51:53.834Z,97675.00
2018-10-19T19:54:33.237Z,97675.00
2018-10-19T19:57:02.551Z,97681.00
2018-10-19T19:59:31.897Z,97680.00
2018-10-19T20:02:01.302Z,97679.00
2018-10-19T20:04:30.582Z,97683.00
2018-10-19T20:06:59.905Z,97679.00
2018-10-19T20:09:29.250Z,97685.00
2018-10-19T20:11:58.562Z,97687.00
2018-10-19T20:14:27.894Z,97691.00
2018-10-19T20:16:57.389Z,97688.00
2018-10-19T20:19:26.687Z,97691.00
2018-10-19T20:21:56.248Z,97691.00
2018-10-19T20:24:25.601Z,97693.00
2018-10-19T20:26:54.908Z,97692.00
2018-10-19T20:29:24.220Z,97695.00
2018-10-19T20:31:53.580Z,97696.00
2018-10-19T20:34:22.898Z,97704.00
2018-10-19T20:36:52.205Z,97698.00
2018-10-19T20:39:21.542Z,97703.00
2018-10-19T20:41:50.855Z,97702.00
2018-10-19T20:44:20.154Z,97709.00
2018-10-19T20:46:49.476Z,97707.00
2018-10-19T20:49:18.789Z,97713.00
2018-10-19T20:51:48.086Z,97719.00
2018-10-19T20:54:17.398Z,97719.00
2018-10-19T20:56:46.701Z,97720.00
2018-10-19T20:59:16.087Z,97723.00
2018-10-19T21:01:45.390Z,97721.00
2018-10-19T21:04:14.697Z,97724.00
2018-10-19T21:06:44.006Z,97722.00
2018-10-19T21:09:13.334Z,97725.00
2018-10-19T21:11:42.653Z,97731.00
2018-10-19T21:14:12.196Z,97727.00
2018-10-19T21:16:41.301Z,97740.00
2018-10-19T21:19:10.734Z,97737.00
2018-10-19T21:21:40.037Z,97732.00
2018-10-19T21:24:09.379Z,97735.00
2018-10-19T21:26:38.973Z,97726.00
2018-10-19T21:29:08.381Z,97729.00
2018-10-19T21:31:37.644Z,97733.00
2018-10-19T21:34:06.960Z,97730.00
2018-10-19T21:36:36.262Z,97735.00
2018-10-19T21:39:08.356Z,97738.00
2018-10-19T21:41:38.046Z,97739.00
2018-10-19T21:44:07.435Z,97741.00
2018-10-19T21:46:36.738Z,97734.00
2018-10-19T21:49:06.418Z,97739.00
2018-10-19T21:51:35.780Z,97736.00
2018-10-19T21:54:05.668Z,97734.00
2018-10-19T21:56:34.973Z,97739.00
2018-10-19T21:59:04.321Z,97743.00
2018-10-19T22:01:33.650Z,97746.00
2018-10-19T22:04:02.946Z,97748.00
2018-10-19T22:06:58.219Z,97752.00
2018-10-19T22:09:41.567Z,97760.00
2018-10-19T22:12:10.901Z,97757.00
2018-10-19T22:14:40.223Z,97763.00
2018-10-19T22:17:09.654Z,97769.00
2018-10-19T22:19:38.890Z,97768.00
2018-10-19T22:22:08.208Z,97765.00
2018-10-19T22:24:37.565Z,97763.00
2018-10-19T22:27:06.937Z,97766.00
2018-10-19T22:29:36.221Z,97772.00
2018-10-19T22:32:05.763Z,97776.00
2018-10-19T22:34:35.086Z,97772.00
2018-10-19T22:37:04.933Z,97775.00
2018-10-19T22:39:34.230Z,97767.00
2018-10-19T22:42:03.554Z,97768.00
2018-10-19T22:44:33.130Z,97771.00
2018-10-19T22:47:18.689Z,97777.00
2018-10-19T22:49:47.990Z,97772.00
2018-10-19T22:52:17.313Z,97774.00
2018-10-19T22:54:46.642Z,97771.00
2018-10-19T22:57:16.238Z,97776.00
2018-10-19T22:59:45.548Z,97773.00
2018-10-19T23:02:14.961Z,97770.00
2018-10-19T23:04:44.270Z,97772.00
2018-10-19T23:07:13.669Z,97780.00
2018-10-19T23:09:42.979Z,97783.00
2018-10-19T23:12:12.239Z,97787.00
2018-10-19T23:14:41.542Z,97779.00
2018-10-19T23:17:10.913Z,97781.00
2018-10-19T23:19:40.205Z,97785.00
2018-10-19T23:22:09.505Z,97784.00
2018-10-19T23:24:38.854Z,97787.00
2018-10-19T23:27:08.170Z,97785.00
2018-10-19T23:29:37.594Z,97779.00
2018-10-19T23:32:07.314Z,97778.00
2018-10-19T23:34:36.678Z,97783.00
2018-10-19T23:37:06.060Z,97783.00
2018-10-19T23:39:35.394Z,97779.00
2018-10-19T23:42:04.731Z,97784.00
2018-10-19T23:44:34.040Z,97787.00
2018-10-19T23:47:03.413Z,97788.00
2018-10-19T23:49:32.701Z,97784.00
2018-10-19T23:52:02.006Z,97793.00
2018-10-19T23:54:31.357Z,97790.00
2018-10-19T23:57:00.689Z,97790.00
2018-10-19T23:59:30.985Z,97788.00
